Flight Track Log - Related Links

Times and Time Zones

All times are in EDT time to prevent confusion due to time zone crossing. See the SWA57 flight status page for this flight to view local times or setup timezone preferences in your user account.

Time Position Orientation Groundspeed Altitude Reporting Facility
EDT Latitude Longitude Course Direction KTS MPH feet Rate Location/Type
Sat 03:12:12 PM 32.7689 -117.2631 300° West 201 231 3,900  Level Los Angeles Center
Sat 03:13:15 PM 32.8186 -117.3517 304° West 265 305 7,100 3,120 Climbing Los Angeles Center
Sat 03:14:17 PM 32.8683 -117.4317 307° West 291 335 10,400 2,710 Climbing Los Angeles Center
Sat 03:15:19 PM 32.9339 -117.5100 315° West 337 388 12,700 2,565 Climbing Los Angeles Center
Sat 03:16:21 PM 33.0186 -117.5786 326° Northwest 363 418 15,700 2,516 Climbing Los Angeles Center
Sat 03:17:23 PM 33.0814 -117.6800 306° West 373 429 17,900 2,274 Climbing Los Angeles Center
Sat 03:18:25 PM 33.1472 -117.7825 308° West 385 443 20,400 2,468 Climbing Los Angeles Center
Sat 03:19:27 PM 33.2111 -117.9222 299° West 398 458 23,000 2,118 Climbing Los Angeles Center
Sat 03:21:32 PM 33.2956 -118.1819 291° West 419 482 27,000 1,903 Climbing Los Angeles Center
Sat 03:22:33 PM 33.3728 -118.3011 308° West 447 514 28,900 1,854 Climbing Los Angeles Center
Sat 03:23:35 PM 33.4492 -118.4244 307° West 454 522 30,800 2,177 Climbing Los Angeles Center
Sat 03:24:37 PM 33.5208 -118.5528 304° West 459 528 33,400 2,226 Climbing Los Angeles Center
Sat 03:25:39 PM 33.5933 -118.6758 305° West 450 518 35,400 1,935 Climbing Los Angeles Center
Sat 03:26:41 PM 33.6792 -118.8172 306° West 435 501 37,400 1,258 Climbing Los Angeles Center
Sat 03:27:43 PM 33.7517 -118.9353 306° West 437 503 38,000 290 Climbing Los Angeles Center
Sat 03:28:45 PM 33.8403 -119.0406 315° West 446 513 38,000  Level Los Angeles Center
Sat 03:29:47 PM 33.9331 -119.1408 318° Northwest 448 516 38,000  Level Los Angeles Center
Sat 03:30:49 PM 34.0269 -119.2428 318° Northwest 453 521 38,000  Level Los Angeles Center
Sat 03:31:51 PM 34.1197 -119.3425 318° Northwest 449 517 38,000  Level Los Angeles Center
Sat 03:32:53 PM 34.2133 -119.4442 318° Northwest 450 518 38,000  Level Los Angeles Center
Sat 03:33:55 PM 34.3256 -119.5656 318° Northwest 451 519 38,000  Level Los Angeles Center
Sat 03:34:57 PM 34.4183 -119.6669 318° Northwest 451 519 38,000  Level Los Angeles Center
Sat 03:35:59 PM 34.5128 -119.7683 319° Northwest 452 520 38,000  Level Los Angeles Center
Sat 03:37:01 PM 34.6169 -119.8806 318° Northwest 454 522 38,000  Level Los Angeles Center
Sat 03:38:03 PM 34.7100 -119.9825 318° Northwest 451 519 38,000  Level Los Angeles Center
Sat 03:39:05 PM 34.8044 -120.0853 318° Northwest 453 521 38,000  Level Los Angeles Center
Sat 03:40:07 PM 34.9003 -120.1889 318° Northwest 455 524 38,000  Level Los Angeles Center
Sat 03:41:09 PM 34.9925 -120.2942 317° Northwest 458 527 38,000  Level Los Angeles Center
Sat 03:42:12 PM 35.0903 -120.4003 318° Northwest 468 539 38,000  Level Los Angeles Center
Sat 03:43:14 PM 35.2050 -120.5300 317° Northwest 480 552 38,000  Level Los Angeles Center
Sat 03:44:16 PM 35.3011 -120.6394 317° Northwest 481 554 38,000  Level Los Angeles Center
Sat 03:45:18 PM 35.3981 -120.7481 318° Northwest 477 549 38,000  Level Los Angeles Center
Sat 03:46:20 PM 35.4950 -120.8575 317° Northwest 476 548 38,000  Level Los Angeles Center
Sat 03:47:22 PM 35.6025 -120.9547 324° Northwest 480 552 38,000  Level Los Angeles Center
Sat 03:48:18 PM 35.7244 -121.0592 325° Northwest 483 556 38,000 -410 Level Oakland Center
Sat 03:49:19 PM 35.8344 -121.1544 325° Northwest 482 555 37,200 -1,033 Descending Oakland Center
Sat 03:50:20 PM 35.9456 -121.2528 324° Northwest 488 562 35,900 -2,164 Descending Oakland Center
Sat 03:51:21 PM 36.0597 -121.3514 325° Northwest 499 574 32,800 -2,634 Descending Oakland Center
Sat 03:52:23 PM 36.1711 -121.4500 324° Northwest 493 567 30,500 -2,341 Descending Oakland Center
Sat 03:53:24 PM 36.2781 -121.5442 325° Northwest 474 545 28,000 -2,361 Descending Oakland Center
Sat 03:54:25 PM 36.3817 -121.6367 324° Northwest 459 528 25,700 -2,195 Descending Oakland Center
Sat 03:55:27 PM 36.4811 -121.7242 325° Northwest 440 506 23,500 -2,195 Descending Oakland Center
Sat 03:56:28 PM 36.5789 -121.8131 324° Northwest 425 489 21,200 -1,721 Descending Oakland Center
Sat 03:57:29 PM 36.6711 -121.8969 324° Northwest 411 473 20,000 -1,171 Descending Oakland Center
Sat 03:58:31 PM 36.7661 -121.9697 328° Northwest 399 459 18,800 -1,258 Descending Oakland Center
Sat 03:59:33 PM 36.8808 -122.0256 339° North 363 418 17,400 -1,525 Descending Oakland Center
Sat 04:00:33 PM 36.9100 -122.1308 289° West 322 371 15,700 -1,770 Descending Oakland Center
Sat 04:01:35 PM 36.9478 -122.2275 296° West 319 367 13,800 -1,610 Descending Oakland Center
Sat 04:02:36 PM 37.0250 -122.2753 334° Northwest 311 358 12,400 -1,574 Descending Oakland Center
Sat 04:03:37 PM 37.1022 -122.3194 335° Northwest 305 351 10,600 -1,171 Descending Oakland Center
Sat 04:04:39 PM 37.1764 -122.3639 334° Northwest 299 344 10,000 -634 Descending Oakland Center
Sat 04:05:40 PM 37.2397 -122.4014 335° Northwest 263 303 9,300 -885 Descending Oakland Center
Sat 04:06:41 PM 37.3014 -122.4322 338° Northwest 244 281 8,200 -683 Descending Oakland Center
Sat 04:07:43 PM 37.3644 -122.4547 344° North 239 275 7,900 -585 Descending Oakland Center
Sat 04:08:44 PM 37.3781 -122.3589 80° East 240 276 7,000 -934 Descending Oakland Center
Sat 04:09:45 PM 37.3825 -122.2761 86° East 237 273 6,000 -1,024 Descending Oakland Center
Sat 04:10:47 PM 37.3847 -122.1936 88° East 237 273 4,900 -488 Descending Oakland Center
Sat 04:11:48 PM 37.4222 -122.1464 45° Northeast 210 242 5,000 -443 Climbing Oakland Center
Sat 04:12:49 PM 37.4728 -122.1350 10° North 195 224 4,000 -878 Descending Oakland Center
Sat 04:13:51 PM 37.5219 -122.1508 346° North 187 215 3,200 -683 Descending Oakland Center
Sat 04:14:52 PM 37.5478 -122.2031 302° West 178 205 2,600 -738 Descending Oakland Center
Sat 04:15:53 PM 37.5661 -122.2533 295° West 168 193 1,700 -780 Descending Oakland Center
Sat 04:16:55 PM 37.5856 -122.2978 299° West 157 181 1,000 -683 Descending Oakland Center
Sat 04:17:56 PM 37.6056 -122.3431 299° West 137 158 300 -443 Descending Oakland Center
Sat 04:18:57 PM 37.6206 -122.3792 298° West 134 154 100 -197 Descending Oakland Center
Sat 04:21:00 PM 37.6167 -122.3667 322° Northwest  Level FlightAware Approximate

Login

Don't have an account? Register now (free) for customized features, flight alerts, and more!